createdAt,value
2018-07-19T00:00:38.140Z,88.32
2018-07-19T00:03:05.603Z,59.90
2018-07-19T00:05:33.044Z,61.92
2018-07-19T00:08:00.562Z,58.58
2018-07-19T00:10:28.019Z,56.45
2018-07-19T00:12:55.454Z,58.20
2018-07-19T00:15:22.872Z,56.53
2018-07-19T00:17:50.357Z,57.88
2018-07-19T00:20:17.785Z,55.15
2018-07-19T00:22:45.265Z,55.00
2018-07-19T00:25:12.734Z,54.17
2018-07-19T00:27:40.213Z,55.63
2018-07-19T00:30:07.682Z,58.08
2018-07-19T00:32:35.142Z,58.03
2018-07-19T00:35:02.599Z,55.40
2018-07-19T00:37:30.098Z,59.85
2018-07-19T00:39:57.614Z,58.63
2018-07-19T00:42:25.049Z,58.50
2018-07-19T00:44:52.564Z,55.60
2018-07-19T00:47:20.041Z,55.08
2018-07-19T00:49:47.488Z,54.63
2018-07-19T00:52:14.967Z,53.83
2018-07-19T00:54:42.413Z,56.10
2018-07-19T00:57:09.908Z,58.20
2018-07-19T00:59:37.365Z,58.25
2018-07-19T01:02:04.859Z,59.60
2018-07-19T01:04:32.368Z,59.40
2018-07-19T01:06:59.957Z,57.30
2018-07-19T01:09:28.116Z,56.85
2018-07-19T01:11:55.615Z,59.08
2018-07-19T01:14:23.136Z,57.60
2018-07-19T01:16:50.625Z,55.42
2018-07-19T01:19:18.116Z,57.85
2018-07-19T01:21:46.529Z,58.38
2018-07-19T01:24:13.985Z,58.60
2018-07-19T01:26:41.505Z,58.70
2018-07-19T01:29:09.039Z,55.17
2018-07-19T01:31:36.492Z,60.63
2018-07-19T01:34:04.005Z,56.58
2018-07-19T01:36:31.508Z,63.38
2018-07-19T01:38:58.947Z,5.03
2018-07-19T01:41:26.552Z,7.78
2018-07-19T01:43:54.006Z,6.00
2018-07-19T01:46:21.467Z,6.82
2018-07-19T01:48:48.942Z,7.40
2018-07-19T01:51:16.404Z,5.53
2018-07-19T01:53:43.868Z,6.18
2018-07-19T01:56:11.321Z,11.35
2018-07-19T01:58:38.761Z,5.55
2018-07-19T02:01:06.237Z,10.73
2018-07-19T02:03:33.713Z,5.45
2018-07-19T02:06:01.171Z,6.18
2018-07-19T02:08:28.658Z,6.28
2018-07-19T02:10:56.079Z,5.60
2018-07-19T02:13:23.496Z,5.07
2018-07-19T02:15:50.963Z,5.53
2018-07-19T02:18:18.399Z,59.95
2018-07-19T02:20:45.980Z,62.83
2018-07-19T02:23:13.478Z,59.67
2018-07-19T02:25:41.000Z,54.40
2018-07-19T02:28:08.463Z,54.38
2018-07-19T02:30:36.040Z,53.40
2018-07-19T02:33:03.495Z,51.88
2018-07-19T02:35:30.965Z,54.92
2018-07-19T02:37:58.514Z,54.65
2018-07-19T02:40:26.387Z,51.40
2018-07-19T02:42:53.962Z,51.63
2018-07-19T02:45:21.622Z,49.60
2018-07-19T02:47:49.083Z,46.45
2018-07-19T02:50:16.507Z,48.95
2018-07-19T02:52:44.426Z,48.80
2018-07-19T02:55:11.998Z,51.17
2018-07-19T02:57:40.024Z,46.40
2018-07-19T03:00:07.475Z,46.90
2018-07-19T03:02:34.922Z,48.70
2018-07-19T03:05:02.395Z,43.95
2018-07-19T03:07:29.873Z,49.13
2018-07-19T03:09:57.344Z,41.60
2018-07-19T03:12:24.843Z,44.97
2018-07-19T03:14:52.457Z,41.50
2018-07-19T03:17:19.913Z,11.23
2018-07-19T03:19:47.349Z,6.78
2018-07-19T03:22:14.840Z,8.45
2018-07-19T03:24:42.337Z,5.82
2018-07-19T03:27:09.793Z,5.35
2018-07-19T03:29:37.399Z,7.40
2018-07-19T03:32:04.882Z,13.10
2018-07-19T03:34:32.327Z,6.80
2018-07-19T03:36:59.769Z,10.40
2018-07-19T03:39:27.214Z,6.82
2018-07-19T03:41:54.661Z,5.93
2018-07-19T03:44:22.085Z,5.62
2018-07-19T03:46:49.542Z,5.35
2018-07-19T03:49:16.991Z,6.15
2018-07-19T03:51:44.473Z,6.18
2018-07-19T03:54:12.029Z,8.65
2018-07-19T03:56:39.525Z,7.03
2018-07-19T03:59:06.965Z,9.85
2018-07-19T04:01:34.376Z,5.70
2018-07-19T04:04:01.875Z,10.70
2018-07-19T04:06:29.315Z,6.00
2018-07-19T04:08:56.797Z,6.37
2018-07-19T04:11:24.221Z,5.15
2018-07-19T04:13:51.660Z,7.03
2018-07-19T04:16:19.128Z,9.48
2018-07-19T04:18:46.571Z,6.70
2018-07-19T04:21:14.050Z,6.03
2018-07-19T04:23:41.544Z,13.23
2018-07-19T04:26:09.035Z,7.10
2018-07-19T04:28:36.493Z,6.20
2018-07-19T04:31:04.010Z,7.00
2018-07-19T04:33:31.452Z,5.07
2018-07-19T04:35:58.890Z,5.78
2018-07-19T04:38:26.441Z,7.28
2018-07-19T04:40:54.001Z,11.82
2018-07-19T04:43:21.459Z,8.32
2018-07-19T04:45:48.957Z,12.02
2018-07-19T04:48:16.439Z,5.90
2018-07-19T04:50:44.160Z,11.63
2018-07-19T04:53:11.626Z,6.15
2018-07-19T04:55:39.123Z,6.97
2018-07-19T04:58:07.156Z,7.20
2018-07-19T05:00:34.603Z,7.07
2018-07-19T05:03:02.109Z,7.07
2018-07-19T05:05:29.579Z,6.37
2018-07-19T05:07:57.050Z,8.98
2018-07-19T05:10:24.534Z,7.37
2018-07-19T05:12:52.070Z,11.57
2018-07-19T05:15:19.594Z,7.65
2018-07-19T05:17:47.045Z,7.85
2018-07-19T05:20:14.507Z,6.53
2018-07-19T05:22:42.028Z,11.90
2018-07-19T05:25:09.699Z,7.78
2018-07-19T05:27:37.249Z,6.57
2018-07-19T05:30:04.868Z,17.50
2018-07-19T05:32:33.134Z,8.38
2018-07-19T05:35:00.580Z,6.50
2018-07-19T05:37:28.091Z,7.95
2018-07-19T05:39:55.610Z,9.48
2018-07-19T05:42:23.119Z,15.27
2018-07-19T05:44:50.624Z,9.23
2018-07-19T05:47:18.087Z,7.87
2018-07-19T05:49:45.579Z,6.75
2018-07-19T05:52:13.012Z,7.62
2018-07-19T05:54:40.473Z,6.28
2018-07-19T05:57:07.970Z,6.82
2018-07-19T05:59:35.476Z,18.25
2018-07-19T06:02:02.926Z,6.60
2018-07-19T06:04:30.401Z,10.10
2018-07-19T06:06:57.844Z,6.97
2018-07-19T06:09:25.948Z,8.00
2018-07-19T06:11:53.359Z,8.15
2018-07-19T06:14:20.868Z,8.68
2018-07-19T06:16:48.433Z,8.27
2018-07-19T06:19:15.916Z,10.55
2018-07-19T06:21:43.821Z,7.95
2018-07-19T06:24:11.294Z,11.95
2018-07-19T06:26:38.760Z,7.12
2018-07-19T06:29:07.020Z,20.77
2018-07-19T06:31:34.570Z,8.80
2018-07-19T06:34:02.059Z,10.68
2018-07-19T06:36:29.775Z,7.87
2018-07-19T06:38:57.246Z,11.77
2018-07-19T06:41:24.745Z,9.63
2018-07-19T06:43:52.190Z,9.23
2018-07-19T06:46:19.643Z,12.15
2018-07-19T06:48:47.138Z,7.18
2018-07-19T06:51:14.635Z,15.40
2018-07-19T06:53:42.051Z,9.13
2018-07-19T06:56:09.477Z,13.38
2018-07-19T06:58:36.962Z,8.30
2018-07-19T07:01:04.502Z,9.05
2018-07-19T07:03:32.173Z,9.68
2018-07-19T07:05:59.545Z,9.50
2018-07-19T07:08:26.994Z,9.65
2018-07-19T07:10:54.545Z,8.85
2018-07-19T07:13:22.308Z,9.55
2018-07-19T07:15:49.775Z,9.23
2018-07-19T07:18:17.266Z,9.88
2018-07-19T07:20:44.818Z,7.65
2018-07-19T07:23:12.251Z,7.75
2018-07-19T07:25:39.761Z,6.82
2018-07-19T07:28:07.453Z,10.55
2018-07-19T07:30:35.028Z,9.05
2018-07-19T07:33:02.508Z,7.43
2018-07-19T07:35:30.033Z,11.68
2018-07-19T07:37:58.496Z,8.80
2018-07-19T07:40:25.936Z,7.00
2018-07-19T07:42:53.398Z,8.68
2018-07-19T07:45:20.838Z,6.12
2018-07-19T07:47:48.318Z,10.30
2018-07-19T07:50:15.817Z,6.62
2018-07-19T07:52:43.340Z,9.43
2018-07-19T07:55:10.922Z,7.65
2018-07-19T07:57:38.327Z,8.73
2018-07-19T08:00:05.747Z,12.37
2018-07-19T08:02:33.355Z,12.10
2018-07-19T08:05:00.870Z,9.13
2018-07-19T08:07:28.371Z,11.32
2018-07-19T08:09:55.856Z,8.98
2018-07-19T08:12:23.382Z,9.27
2018-07-19T08:14:50.812Z,9.38
2018-07-19T08:17:18.313Z,9.02
2018-07-19T08:19:45.836Z,12.45
2018-07-19T08:22:13.296Z,13.68
2018-07-19T08:24:40.846Z,9.55
2018-07-19T08:27:08.464Z,9.57
2018-07-19T08:29:35.990Z,11.95
2018-07-19T08:32:03.463Z,88.03
2018-07-19T08:34:30.952Z,70.00
2018-07-19T08:36:58.459Z,71.80
2018-07-19T08:39:26.112Z,77.20
2018-07-19T08:41:54.162Z,22.85
2018-07-19T08:44:21.600Z,8.52
2018-07-19T08:46:49.109Z,13.02
2018-07-19T08:49:16.584Z,11.00
2018-07-19T08:51:44.182Z,12.00
2018-07-19T08:54:11.655Z,7.95
2018-07-19T08:56:39.200Z,9.93
2018-07-19T08:59:06.635Z,13.05
2018-07-19T09:01:34.109Z,11.75
2018-07-19T09:04:01.698Z,9.70
2018-07-19T09:06:29.186Z,9.30
2018-07-19T09:08:57.245Z,10.60
2018-07-19T09:11:24.808Z,16.02
2018-07-19T09:13:52.328Z,7.47
2018-07-19T09:16:19.847Z,12.20
2018-07-19T09:18:47.290Z,8.77
2018-07-19T09:21:14.799Z,10.55
2018-07-19T09:23:42.363Z,9.38
2018-07-19T09:26:09.802Z,9.88
2018-07-19T09:28:37.343Z,14.05
2018-07-19T09:31:04.863Z,13.48
2018-07-19T09:33:33.125Z,14.87
2018-07-19T09:36:00.599Z,9.93
2018-07-19T09:38:28.192Z,11.77
2018-07-19T09:40:55.691Z,12.07
2018-07-19T09:43:23.212Z,10.80
2018-07-19T09:45:50.695Z,10.20
2018-07-19T09:48:18.166Z,11.05
2018-07-19T09:50:45.725Z,10.15
2018-07-19T10:12:50.605Z,44.00
2018-07-19T10:17:45.296Z,12.90
2018-07-19T10:20:12.896Z,41.60
2018-07-19T10:22:40.443Z,10.30
2018-07-19T10:25:07.971Z,11.88
2018-07-19T10:27:35.572Z,10.30
2018-07-19T10:30:03.926Z,10.98
2018-07-19T10:32:32.050Z,15.32
2018-07-19T10:34:59.403Z,11.82
2018-07-19T10:37:26.937Z,9.75
2018-07-19T10:39:54.389Z,9.07
2018-07-19T10:42:21.881Z,9.50
2018-07-19T10:44:49.467Z,10.50
2018-07-19T10:47:16.949Z,11.02
2018-07-19T10:49:44.482Z,8.95
2018-07-19T10:52:12.250Z,9.70
2018-07-19T10:54:39.847Z,12.02
2018-07-19T10:57:07.780Z,9.75
2018-07-19T10:59:35.434Z,9.25
2018-07-19T11:02:02.898Z,9.68
2018-07-19T11:04:31.115Z,10.95
2018-07-19T11:06:58.936Z,9.27
2018-07-19T11:09:26.778Z,9.95
2018-07-19T11:11:54.210Z,9.15
2018-07-19T11:14:22.096Z,10.70
2018-07-19T11:16:49.594Z,8.95
2018-07-19T11:19:17.178Z,11.18
2018-07-19T11:21:44.603Z,11.15
2018-07-19T11:24:12.117Z,9.30
2018-07-19T11:26:39.608Z,9.20
2018-07-19T11:29:07.079Z,7.97
2018-07-19T11:31:34.581Z,9.52
2018-07-19T11:34:02.099Z,11.15
2018-07-19T11:36:29.636Z,8.05
2018-07-19T11:38:57.210Z,9.50
2018-07-19T11:41:24.753Z,9.50
2018-07-19T11:43:52.310Z,10.55
2018-07-19T11:46:19.753Z,11.57
2018-07-19T11:48:47.217Z,9.10
2018-07-19T11:51:14.666Z,8.40
2018-07-19T12:03:30.367Z,9.47
2018-07-19T12:05:57.776Z,7.10
2018-07-19T12:08:25.307Z,10.20
2018-07-19T12:10:52.766Z,10.30
2018-07-19T12:15:47.315Z,12.80
2018-07-19T12:20:41.815Z,10.18
2018-07-19T12:23:10.239Z,6.82
2018-07-19T12:25:37.831Z,12.35
2018-07-19T12:28:05.291Z,16.12
2018-07-19T12:30:32.796Z,10.10
2018-07-19T12:33:00.210Z,8.85
2018-07-19T12:35:27.685Z,10.05
2018-07-19T12:37:55.184Z,8.35
2018-07-19T12:40:22.647Z,9.25
2018-07-19T12:42:50.170Z,8.48
2018-07-19T12:45:18.689Z,10.65
2018-07-19T12:47:46.183Z,10.25
2018-07-19T12:50:13.682Z,10.70
2018-07-19T12:52:41.131Z,8.00
2018-07-19T12:55:08.747Z,10.95
2018-07-19T12:57:36.260Z,12.15
2018-07-19T13:00:03.761Z,9.25
2018-07-19T13:02:31.180Z,9.52
2018-07-19T13:04:58.594Z,11.98
2018-07-19T13:07:26.025Z,8.50
2018-07-19T13:09:53.532Z,12.95
2018-07-19T13:12:21.365Z,12.10
2018-07-19T13:14:48.846Z,11.52
2018-07-19T13:17:16.321Z,9.30
2018-07-19T13:19:43.806Z,10.70
2018-07-19T13:22:11.263Z,15.15
2018-07-19T13:27:06.018Z,9.75
2018-07-19T13:29:33.504Z,9.05
2018-07-19T13:32:01.036Z,9.82
2018-07-19T13:34:28.546Z,13.75
2018-07-19T13:36:56.165Z,9.63
2018-07-19T13:39:23.801Z,8.85
2018-07-19T13:41:51.227Z,9.93
2018-07-19T13:44:18.699Z,10.30
2018-07-19T13:46:46.151Z,8.90
2018-07-19T13:49:14.273Z,11.15
2018-07-19T13:51:41.883Z,11.05
2018-07-19T13:54:10.389Z,8.32
2018-07-19T13:56:37.948Z,8.63
2018-07-19T13:59:05.392Z,11.90
2018-07-19T14:01:32.847Z,8.50
2018-07-19T14:04:00.366Z,10.10
2018-07-19T14:06:27.857Z,9.45
2018-07-19T14:08:55.332Z,10.15
2018-07-19T14:11:22.936Z,11.63
2018-07-19T14:13:50.388Z,15.27
2018-07-19T14:16:17.852Z,11.32
2018-07-19T14:18:45.496Z,12.30
2018-07-19T14:21:12.985Z,11.45
2018-07-19T14:23:40.519Z,7.37
2018-07-19T14:26:08.020Z,16.73
2018-07-19T14:28:35.539Z,11.65
2018-07-19T14:31:02.971Z,14.02
2018-07-19T14:33:30.459Z,14.18
2018-07-19T14:35:58.078Z,11.48
2018-07-19T14:38:25.592Z,14.95
2018-07-19T14:40:54.097Z,12.85
2018-07-19T14:43:21.703Z,11.65
2018-07-19T14:45:49.199Z,13.70
2018-07-19T14:48:16.670Z,9.25
2018-07-19T14:50:44.118Z,12.07
2018-07-19T14:53:11.714Z,12.75
2018-07-19T14:55:39.132Z,11.95
2018-07-19T14:58:06.774Z,10.55
2018-07-19T15:00:34.387Z,8.88
2018-07-19T15:03:02.183Z,12.85
2018-07-19T15:05:29.652Z,13.98
2018-07-19T15:07:57.118Z,9.23
2018-07-19T15:10:24.569Z,12.02
2018-07-19T15:12:52.126Z,8.95
2018-07-19T15:15:19.673Z,10.32
2018-07-19T15:17:47.186Z,9.43
2018-07-19T15:20:14.809Z,12.27
2018-07-19T15:22:43.533Z,12.37
2018-07-19T15:25:11.099Z,10.07
2018-07-19T15:27:38.810Z,13.05
2018-07-19T15:30:06.247Z,10.95
2018-07-19T15:32:33.699Z,10.98
2018-07-19T15:35:01.126Z,9.25
2018-07-19T15:37:28.563Z,9.45
2018-07-19T15:39:56.113Z,9.88
2018-07-19T15:42:23.610Z,8.85
2018-07-19T15:44:51.111Z,11.10
2018-07-19T15:47:18.684Z,9.07
2018-07-19T15:49:46.199Z,8.63
2018-07-19T15:52:13.648Z,6.90
2018-07-19T15:54:41.120Z,9.30
2018-07-19T15:57:08.638Z,7.53
2018-07-19T15:59:36.105Z,7.35
2018-07-19T16:02:03.607Z,17.02
2018-07-19T16:04:31.074Z,7.72
2018-07-19T16:06:58.602Z,8.88
2018-07-19T16:09:26.073Z,8.30
2018-07-19T16:11:53.552Z,43.05
2018-07-19T16:14:21.390Z,10.52
2018-07-19T16:16:48.917Z,9.05
2018-07-19T16:19:16.394Z,8.85
2018-07-19T16:21:44.072Z,13.70
2018-07-19T16:24:11.565Z,11.50
2018-07-19T16:26:39.120Z,10.57
2018-07-19T16:29:06.687Z,13.30
2018-07-19T16:31:34.212Z,10.00
2018-07-19T16:34:01.920Z,7.60
2018-07-19T16:36:29.380Z,7.80
2018-07-19T16:38:56.892Z,8.52
2018-07-19T16:41:24.356Z,8.40
2018-07-19T16:43:51.912Z,9.13
2018-07-19T16:46:19.343Z,9.55
2018-07-19T16:48:46.840Z,9.38
2018-07-19T16:51:14.300Z,10.13
2018-07-19T16:53:41.880Z,10.25
2018-07-19T16:56:09.355Z,11.50
2018-07-19T16:58:36.758Z,18.52
2018-07-19T17:01:04.206Z,15.68
2018-07-19T17:03:31.661Z,10.50
2018-07-19T17:05:59.111Z,8.77
2018-07-19T17:08:26.665Z,12.65
2018-07-19T17:10:54.121Z,12.50
2018-07-19T17:13:21.662Z,11.05
2018-07-19T17:15:49.154Z,13.10
2018-07-19T17:18:16.673Z,17.35
2018-07-19T17:20:44.385Z,11.93
2018-07-19T17:23:11.807Z,12.18
2018-07-19T17:25:39.308Z,9.90
2018-07-19T17:28:06.888Z,13.30
2018-07-19T17:30:34.364Z,15.43
2018-07-19T17:33:01.827Z,12.10
2018-07-19T17:35:29.328Z,8.98
2018-07-19T17:37:56.774Z,10.02
2018-07-19T17:40:24.224Z,11.60
2018-07-19T17:42:51.813Z,11.27
2018-07-19T17:45:19.315Z,12.52
2018-07-19T17:47:46.763Z,10.68
2018-07-19T17:50:14.270Z,13.23
2018-07-19T17:52:41.690Z,8.35
2018-07-19T17:55:09.134Z,10.35
2018-07-19T17:57:36.574Z,16.12
2018-07-19T18:00:04.172Z,9.27
2018-07-19T18:02:31.678Z,7.93
2018-07-19T18:04:59.862Z,9.57
2018-07-19T18:07:27.347Z,8.20
2018-07-19T18:09:54.838Z,8.57
2018-07-19T18:12:22.450Z,8.00
2018-07-19T18:14:49.966Z,7.95
2018-07-19T18:17:17.476Z,9.75
2018-07-19T18:19:45.013Z,9.55
2018-07-19T18:22:12.553Z,9.60
2018-07-19T18:24:39.992Z,10.43
2018-07-19T18:27:07.426Z,8.93
2018-07-19T18:29:34.889Z,11.02
2018-07-19T18:32:02.414Z,10.88
2018-07-19T18:34:29.864Z,11.60
2018-07-19T18:36:57.425Z,11.15
2018-07-19T18:39:24.979Z,12.05
2018-07-19T18:41:52.415Z,12.88
2018-07-19T18:44:19.941Z,9.93
2018-07-19T18:46:48.118Z,10.13
2018-07-19T18:49:15.730Z,13.07
2018-07-19T18:51:43.485Z,13.65
2018-07-19T18:54:11.023Z,9.10
2018-07-19T18:56:38.457Z,9.95
2018-07-19T18:59:06.005Z,9.20
2018-07-19T19:01:33.684Z,11.12
2018-07-19T19:04:01.185Z,10.18
2018-07-19T19:06:28.932Z,13.52
2018-07-19T19:08:56.452Z,9.90
2018-07-19T19:11:23.933Z,14.90
2018-07-19T19:13:51.497Z,9.13
2018-07-19T19:16:18.956Z,15.43
2018-07-19T19:18:46.461Z,11.75
2018-07-19T19:21:14.037Z,19.35
2018-07-19T19:23:41.677Z,11.82
2018-07-19T19:26:09.189Z,13.68
2018-07-19T19:28:36.672Z,10.88
2018-07-19T19:31:04.123Z,12.20
2018-07-19T19:33:31.638Z,10.43
2018-07-19T19:35:59.087Z,9.30
2018-07-19T19:38:27.431Z,8.30
2018-07-19T19:40:54.929Z,11.00
2018-07-19T19:43:22.391Z,9.07
2018-07-19T19:45:49.861Z,10.35
2018-07-19T19:48:17.678Z,11.68
2018-07-19T19:50:45.248Z,9.35
2018-07-19T19:53:12.695Z,31.37
2018-07-19T19:55:40.170Z,30.08
2018-07-19T19:58:07.652Z,60.45
2018-07-19T20:00:35.452Z,13.68
2018-07-19T20:03:03.108Z,40.28
2018-07-19T20:05:30.632Z,34.65
2018-07-19T20:07:58.136Z,21.95
2018-07-19T20:10:25.602Z,11.68
2018-07-19T20:12:53.051Z,8.00
2018-07-19T20:15:20.773Z,13.02
2018-07-19T20:17:48.552Z,10.27
2018-07-19T20:20:15.996Z,10.13
2018-07-19T20:22:43.710Z,13.60
2018-07-19T20:25:11.424Z,8.82
2018-07-19T20:27:39.111Z,8.45
2018-07-19T20:30:06.571Z,9.48
2018-07-19T20:32:34.085Z,12.15
2018-07-19T20:35:01.498Z,12.98
2018-07-19T20:37:28.971Z,9.70
2018-07-19T20:39:56.510Z,9.70
2018-07-19T20:42:23.979Z,33.33
2018-07-19T20:44:51.566Z,14.38
2018-07-19T20:47:19.050Z,19.33
2018-07-19T20:49:46.515Z,12.05
2018-07-19T20:52:13.932Z,11.12
2018-07-19T20:54:41.374Z,11.05
2018-07-19T20:57:08.928Z,10.70
2018-07-19T20:59:36.570Z,12.88
2018-07-19T21:02:04.031Z,14.40
2018-07-19T21:04:31.618Z,13.50
2018-07-19T21:06:59.067Z,10.38
2018-07-19T21:09:26.529Z,9.98
2018-07-19T21:11:54.006Z,12.23
2018-07-19T21:14:21.480Z,13.82
2018-07-19T21:16:48.999Z,10.05
2018-07-19T21:19:16.456Z,11.85
2018-07-19T21:21:44.053Z,14.75
2018-07-19T21:24:11.587Z,17.85
2018-07-19T21:26:39.040Z,11.70
2018-07-19T21:29:06.668Z,16.10
2018-07-19T21:31:34.175Z,14.93
2018-07-19T21:34:01.669Z,10.07
2018-07-19T21:36:29.131Z,9.10
2018-07-19T21:38:56.611Z,21.08
2018-07-19T21:41:24.131Z,10.50
2018-07-19T21:43:51.585Z,13.70
2018-07-19T21:46:19.088Z,11.25
2018-07-19T21:48:46.535Z,11.73
2018-07-19T21:51:14.004Z,18.33
2018-07-19T21:53:41.429Z,14.27
2018-07-19T21:56:08.947Z,13.82
2018-07-19T21:58:36.329Z,20.25
2018-07-19T22:01:03.836Z,23.42
2018-07-19T22:03:31.262Z,11.80
2018-07-19T22:05:58.796Z,10.27
2018-07-19T22:08:26.312Z,11.88
2018-07-19T22:10:53.788Z,10.98
2018-07-19T22:13:21.204Z,12.37
2018-07-19T22:15:48.730Z,12.98
2018-07-19T22:18:16.245Z,10.35
2018-07-19T22:20:43.741Z,15.38
2018-07-19T22:23:13.165Z,13.50
2018-07-19T22:25:40.892Z,15.43
2018-07-19T22:28:08.407Z,14.00
2018-07-19T22:30:35.897Z,16.23
2018-07-19T22:33:03.356Z,56.92
2018-07-19T22:35:30.799Z,11.10
2018-07-19T22:37:58.215Z,10.82
2018-07-19T22:40:25.648Z,15.55
2018-07-19T22:42:53.163Z,11.38
2018-07-19T22:45:20.956Z,11.65
2018-07-19T22:47:48.441Z,54.30
2018-07-19T22:50:16.727Z,61.58
2018-07-19T22:52:44.171Z,78.40
2018-07-19T22:55:11.735Z,13.90
2018-07-19T22:57:39.198Z,11.27
2018-07-19T23:00:06.719Z,14.85
2018-07-19T23:02:34.137Z,17.48
2018-07-19T23:05:01.960Z,10.30
2018-07-19T23:07:29.384Z,11.02
2018-07-19T23:09:56.846Z,9.65
2018-07-19T23:12:24.446Z,9.18
2018-07-19T23:14:51.957Z,13.60
2018-07-19T23:17:19.390Z,47.78
2018-07-19T23:19:46.847Z,54.33
2018-07-19T23:22:14.297Z,47.45
2018-07-19T23:24:41.794Z,48.53
2018-07-19T23:27:09.285Z,51.30
2018-07-19T23:29:36.713Z,49.00
2018-07-19T23:32:04.183Z,51.03
2018-07-19T23:34:31.695Z,54.08
2018-07-19T23:36:59.156Z,57.08
2018-07-19T23:39:26.590Z,58.00
2018-07-19T23:41:54.105Z,61.78
2018-07-19T23:44:21.532Z,12.85
2018-07-19T23:46:48.995Z,11.07
2018-07-19T23:49:16.422Z,8.18
2018-07-19T23:51:43.867Z,9.32
2018-07-19T23:54:11.395Z,12.30
2018-07-19T23:56:38.818Z,14.30
2018-07-19T23:59:06.307Z,13.55
